createdAt,value
2019-03-29T00:02:06.051Z,101540.44
2019-03-29T00:06:10.902Z,101536.55
2019-03-29T00:10:15.901Z,101543.02
2019-03-29T00:14:23.377Z,101534.91
2019-03-29T00:18:27.187Z,101541.36
2019-03-29T00:22:31.936Z,101532.81
2019-03-29T00:26:36.663Z,101537.95
2019-03-29T00:30:41.988Z,101540.15
2019-03-29T00:34:46.832Z,101537.95
2019-03-29T00:38:51.694Z,101544.84
2019-03-29T00:42:56.448Z,101546.84
2019-03-29T00:47:01.198Z,101542.82
2019-03-29T00:51:06.046Z,101543.54
2019-03-29T00:55:10.807Z,101541.28
2019-03-29T00:59:15.525Z,101548.50
2019-03-29T01:03:20.582Z,101538.55
2019-03-29T01:07:25.702Z,101539.19
2019-03-29T01:11:30.431Z,101531.95
2019-03-29T01:15:38.257Z,101531.50
2019-03-29T01:19:43.466Z,101523.04
2019-03-29T01:23:48.228Z,101529.13
2019-03-29T01:27:52.919Z,101523.75
2019-03-29T01:31:57.674Z,101523.81
2019-03-29T01:36:03.265Z,101532.52
2019-03-29T01:40:09.133Z,101526.75
2019-03-29T01:44:14.087Z,101529.27
2019-03-29T01:48:18.833Z,101533.46
2019-03-29T01:52:23.867Z,101532.34
2019-03-29T01:56:28.615Z,101531.83
2019-03-29T02:00:36.033Z,101529.94
2019-03-29T02:04:41.103Z,101535.69
2019-03-29T02:08:45.794Z,101533.55
2019-03-29T02:12:50.946Z,101536.48
2019-03-29T02:16:56.025Z,101537.80
2019-03-29T02:21:01.111Z,101534.63
2019-03-29T02:25:06.582Z,101540.61
2019-03-29T02:29:11.329Z,101535.23
2019-03-29T02:33:16.170Z,101539.55
2019-03-29T02:37:20.908Z,101533.58
2019-03-29T02:41:25.751Z,101540.39
2019-03-29T02:45:30.804Z,101539.31
2019-03-29T02:49:35.877Z,101536.92
2019-03-29T02:53:40.729Z,101534.66
2019-03-29T02:57:45.821Z,101535.36
2019-03-29T03:01:50.805Z,101531.66
2019-03-29T03:05:55.583Z,101534.52
2019-03-29T03:10:00.600Z,101528.91
2019-03-29T03:14:05.442Z,101533.80
2019-03-29T03:18:10.246Z,101529.14
2019-03-29T03:22:14.978Z,101530.12
2019-03-29T03:26:19.722Z,101521.23
2019-03-29T03:30:24.490Z,101524.58
2019-03-29T03:34:29.212Z,101522.61
2019-03-29T03:38:34.064Z,101524.64
2019-03-29T03:42:38.819Z,101535.48
2019-03-29T03:46:43.588Z,101537.84
2019-03-29T03:50:48.318Z,101545.54
2019-03-29T03:54:53.047Z,101549.80
2019-03-29T03:58:59.172Z,101559.69
2019-03-29T04:03:03.892Z,101558.16
2019-03-29T04:07:08.663Z,101563.62
2019-03-29T04:11:13.383Z,101562.20
2019-03-29T04:15:18.567Z,101567.77
2019-03-29T04:19:23.392Z,101571.59
2019-03-29T04:23:28.135Z,101572.63
2019-03-29T04:27:32.842Z,101575.95
2019-03-29T04:31:37.593Z,101585.47
2019-03-29T04:35:42.436Z,101581.40
2019-03-29T04:39:47.174Z,101588.84
2019-03-29T04:43:51.933Z,101591.88
2019-03-29T04:47:56.664Z,101608.34
2019-03-29T04:52:01.408Z,101611.81
2019-03-29T04:56:06.149Z,101615.25
2019-03-29T05:00:11.115Z,101610.58
2019-03-29T05:04:15.840Z,101606.97
2019-03-29T05:08:20.589Z,101612.55
2019-03-29T05:12:25.417Z,101617.65
2019-03-29T05:16:30.176Z,101618.96
2019-03-29T05:20:34.873Z,101622.61
2019-03-29T05:24:39.605Z,101626.30
2019-03-29T05:28:44.473Z,101638.28
2019-03-29T05:32:49.259Z,101638.50
2019-03-29T05:36:54.057Z,101634.83
2019-03-29T05:40:58.889Z,101639.54
2019-03-29T05:45:03.647Z,101641.99
2019-03-29T05:49:08.475Z,101645.79
2019-03-29T05:53:13.594Z,101646.22
2019-03-29T05:57:18.787Z,101656.60
2019-03-29T06:01:23.514Z,101651.31
2019-03-29T06:05:28.360Z,101648.62
2019-03-29T06:09:35.081Z,101644.60
2019-03-29T06:13:40.098Z,101645.66
2019-03-29T06:17:48.771Z,101651.53
2019-03-29T06:21:51.389Z,101644.63
2019-03-29T06:25:56.158Z,101639.38
2019-03-29T06:30:00.854Z,101637.33
2019-03-29T06:34:05.654Z,101639.80
2019-03-29T06:38:11.307Z,101651.09
2019-03-29T06:42:16.115Z,101663.64
2019-03-29T06:46:20.865Z,101661.50
2019-03-29T06:50:25.659Z,101662.62
2019-03-29T06:54:30.350Z,101667.33
2019-03-29T06:58:35.084Z,101659.75
2019-03-29T07:02:39.838Z,101661.26
2019-03-29T07:06:44.583Z,101661.02
2019-03-29T07:10:49.383Z,101654.75
2019-03-29T07:14:54.127Z,101661.91
2019-03-29T07:18:58.874Z,101647.29
2019-03-29T07:23:03.636Z,101652.95
2019-03-29T07:27:08.332Z,101650.58
2019-03-29T07:31:13.116Z,101666.60
2019-03-29T07:35:17.886Z,101669.45
2019-03-29T07:39:22.736Z,101661.57
2019-03-29T07:43:27.543Z,101668.11
2019-03-29T07:47:32.266Z,101659.73
2019-03-29T07:51:37.076Z,101655.59
2019-03-29T07:55:41.839Z,101652.53
2019-03-29T07:59:46.697Z,101655.22
2019-03-29T08:03:52.526Z,101652.86
2019-03-29T08:07:58.062Z,101654.16
2019-03-29T08:12:03.257Z,101650.16
2019-03-29T08:16:08.034Z,101648.61
2019-03-29T08:20:38.189Z,101647.52
2019-03-29T08:24:19.590Z,101644.31
2019-03-29T08:28:24.360Z,101639.52
2019-03-29T08:32:29.556Z,101644.14
2019-03-29T08:36:34.660Z,101636.19
2019-03-29T08:40:39.428Z,101644.38
2019-03-29T08:44:44.178Z,101640.27
2019-03-29T08:48:49.060Z,101646.03
2019-03-29T08:52:53.748Z,101633.34
2019-03-29T08:56:58.506Z,101627.30
2019-03-29T09:01:03.276Z,101628.50
2019-03-29T09:05:08.408Z,101618.25
2019-03-29T09:09:13.153Z,101617.38
2019-03-29T09:13:17.925Z,101613.80
2019-03-29T09:17:22.659Z,101605.50
2019-03-29T09:21:27.420Z,101603.19
2019-03-29T09:25:32.114Z,101600.13
2019-03-29T09:29:37.081Z,101593.39
2019-03-29T09:33:41.927Z,101584.67
2019-03-29T09:37:46.718Z,101595.94
2019-03-29T09:41:51.526Z,101596.10
2019-03-29T09:45:56.384Z,101591.55
2019-03-29T09:50:01.129Z,101585.02
2019-03-29T09:54:05.877Z,101585.61
2019-03-29T09:58:10.672Z,101576.36
2019-03-29T10:02:15.528Z,101573.36
2019-03-29T10:06:20.436Z,101572.00
2019-03-29T10:10:25.190Z,101570.16
2019-03-29T10:14:33.321Z,101564.92
2019-03-29T10:18:36.555Z,101556.55
2019-03-29T10:22:41.332Z,101556.55
2019-03-29T10:26:46.082Z,101553.03
2019-03-29T10:30:50.947Z,101555.42
2019-03-29T10:34:55.834Z,101549.74
2019-03-29T10:39:00.938Z,101540.77
2019-03-29T10:43:05.994Z,101532.25
2019-03-29T10:47:10.898Z,101528.98
2019-03-29T10:51:15.637Z,101523.16
2019-03-29T10:55:20.387Z,101528.25
2019-03-29T10:59:27.749Z,101520.34
2019-03-29T11:03:31.722Z,101515.19
2019-03-29T11:07:36.475Z,101516.60
2019-03-29T11:11:41.180Z,101517.59
2019-03-29T11:15:45.941Z,101498.74
2019-03-29T11:19:50.780Z,101494.91
2019-03-29T11:23:55.533Z,101483.69
2019-03-29T11:28:00.780Z,101487.06
2019-03-29T11:32:05.502Z,101488.41
2019-03-29T11:36:10.517Z,101470.90
2019-03-29T11:40:15.626Z,101464.49
2019-03-29T11:44:20.384Z,101452.81
2019-03-29T11:48:25.244Z,101452.89
2019-03-29T11:52:30.057Z,101457.45
2019-03-29T11:56:34.781Z,101449.12
2019-03-29T12:00:41.187Z,101446.50
2019-03-29T12:04:45.892Z,101433.15
2019-03-29T12:08:50.631Z,101432.30
2019-03-29T12:12:55.374Z,101421.41
2019-03-29T12:17:00.136Z,101412.32
2019-03-29T12:21:05.048Z,101403.67
2019-03-29T12:25:09.811Z,101388.34
2019-03-29T12:29:14.622Z,101389.77
2019-03-29T12:33:19.416Z,101387.55
2019-03-29T12:37:24.206Z,101381.42
2019-03-29T12:41:29.167Z,101373.02
2019-03-29T12:45:35.580Z,101369.95
2019-03-29T12:49:40.576Z,101351.63
2019-03-29T12:53:45.439Z,101343.49
2019-03-29T12:57:50.170Z,101343.87
2019-03-29T13:01:55.103Z,101336.48
2019-03-29T13:05:59.824Z,101329.50
2019-03-29T13:10:05.150Z,101320.30
2019-03-29T13:14:10.979Z,101318.15
2019-03-29T13:18:15.879Z,101313.38
2019-03-29T13:22:20.856Z,101319.12
2019-03-29T13:26:25.679Z,101318.27
2019-03-29T13:30:30.435Z,101311.20
2019-03-29T13:34:35.265Z,101305.14
2019-03-29T13:38:40.031Z,101307.51
2019-03-29T13:42:45.001Z,101300.35
2019-03-29T13:46:50.382Z,101292.36
2019-03-29T13:50:55.139Z,101290.56
2019-03-29T13:54:59.901Z,101284.36
2019-03-29T13:59:04.770Z,101275.95
2019-03-29T14:03:09.604Z,101282.19
2019-03-29T14:07:14.377Z,101278.27
2019-03-29T14:11:19.284Z,101272.44
2019-03-29T14:15:24.053Z,101267.01
2019-03-29T14:19:30.505Z,101275.37
2019-03-29T14:23:37.711Z,101268.30
2019-03-29T14:27:42.600Z,101273.15
2019-03-29T14:31:47.664Z,101273.95
2019-03-29T14:35:53.282Z,101262.80
2019-03-29T14:39:58.018Z,101257.18
2019-03-29T14:44:02.769Z,101256.33
2019-03-29T14:48:07.546Z,101256.39
2019-03-29T14:52:12.316Z,101251.98
2019-03-29T14:56:17.052Z,101242.79
2019-03-29T15:00:36.534Z,101235.70
2019-03-29T15:04:41.689Z,101233.92
2019-03-29T15:08:49.731Z,101226.48
2019-03-29T15:12:53.993Z,101218.08
2019-03-29T15:16:58.752Z,101216.77
2019-03-29T15:21:03.489Z,101215.91
2019-03-29T15:25:09.662Z,101209.70
2019-03-29T15:29:14.671Z,101199.14
2019-03-29T15:33:19.417Z,101195.63
2019-03-29T15:37:24.194Z,101187.22
2019-03-29T15:41:29.702Z,101195.49
2019-03-29T15:45:34.967Z,101184.39
2019-03-29T15:49:40.398Z,101178.67
2019-03-29T15:53:45.908Z,101171.64
2019-03-29T15:57:50.637Z,101170.31
2019-03-29T16:01:55.762Z,101165.02
2019-03-29T16:06:01.684Z,101160.57
2019-03-29T16:10:07.085Z,101162.75
2019-03-29T16:14:11.827Z,101151.22
2019-03-29T16:18:16.690Z,101159.17
2019-03-29T16:22:22.710Z,101160.80
2019-03-29T16:26:27.551Z,101154.05
2019-03-29T16:30:33.925Z,101155.80
2019-03-29T16:34:40.431Z,101166.86
2019-03-29T16:38:45.514Z,101164.17
2019-03-29T16:42:50.827Z,101154.38
2019-03-29T16:46:56.486Z,101153.45
2019-03-29T16:51:02.171Z,101159.56
2019-03-29T16:55:13.656Z,101153.41
2019-03-29T16:59:14.706Z,101154.24
2019-03-29T17:03:21.067Z,101158.66
2019-03-29T17:07:26.154Z,101162.16
2019-03-29T17:11:31.931Z,101155.08
2019-03-29T17:15:36.666Z,101158.14
2019-03-29T17:19:41.748Z,101148.84
2019-03-29T17:23:47.666Z,101155.42
2019-03-29T17:27:52.918Z,101151.39
2019-03-29T17:31:59.694Z,101155.80
2019-03-29T17:36:04.970Z,101151.34
2019-03-29T17:40:10.587Z,101160.06
2019-03-29T17:44:15.401Z,101164.80
2019-03-29T17:48:21.235Z,101155.46
2019-03-29T17:52:27.014Z,101163.28
2019-03-29T17:56:32.385Z,101163.21
2019-03-29T18:00:38.378Z,101163.11
2019-03-29T18:04:43.097Z,101170.95
2019-03-29T18:08:48.890Z,101169.94
2019-03-29T18:12:53.908Z,101161.44
2019-03-29T18:16:58.762Z,101166.95
2019-03-29T18:21:03.481Z,101164.61
2019-03-29T18:25:08.660Z,101166.21
2019-03-29T18:29:13.936Z,101170.03
2019-03-29T18:33:19.919Z,101176.08
2019-03-29T18:37:25.295Z,101180.36
2019-03-29T18:41:30.837Z,101180.91
2019-03-29T18:45:35.502Z,101178.89
2019-03-29T18:49:41.422Z,101177.88
2019-03-29T18:53:47.269Z,101176.83
2019-03-29T18:57:53.168Z,101176.83
2019-03-29T19:01:59.784Z,101179.44
2019-03-29T19:06:04.900Z,101185.05
2019-03-29T19:10:10.534Z,101179.13
2019-03-29T19:14:15.842Z,101178.41
2019-03-29T19:18:21.015Z,101176.84
2019-03-29T19:22:26.200Z,101172.15
2019-03-29T19:26:31.070Z,101163.68
2019-03-29T19:30:36.458Z,101169.80
2019-03-29T19:34:41.427Z,101166.45
2019-03-29T19:38:46.613Z,101173.25
2019-03-29T19:42:52.498Z,101177.37
2019-03-29T19:46:57.568Z,101172.41
2019-03-29T19:51:02.563Z,101173.09
2019-03-29T19:55:07.556Z,101169.05
2019-03-29T19:59:12.349Z,101168.49
2019-03-29T20:03:17.136Z,101155.59
2019-03-29T20:07:21.977Z,101165.87
2019-03-29T20:11:26.856Z,101157.71
2019-03-29T20:15:31.655Z,101155.61
2019-03-29T20:19:36.493Z,101154.11
2019-03-29T20:23:41.564Z,101145.16
2019-03-29T20:27:46.375Z,101142.92
2019-03-29T20:31:51.155Z,101147.70
2019-03-29T20:35:56.104Z,101149.02
2019-03-29T20:40:01.725Z,101145.81
2019-03-29T20:44:07.351Z,101145.23
2019-03-29T20:48:12.907Z,101141.11
2019-03-29T20:52:18.673Z,101136.14
2019-03-29T20:56:23.691Z,101138.28
2019-03-29T21:00:28.453Z,101132.46
2019-03-29T21:04:33.365Z,101128.86
2019-03-29T21:08:38.155Z,101124.42
2019-03-29T21:12:43.457Z,101117.66
2019-03-29T21:16:48.656Z,101108.65
2019-03-29T21:20:53.448Z,101104.47
2019-03-29T21:24:58.244Z,101099.13
2019-03-29T21:29:03.163Z,101101.69
2019-03-29T21:33:07.918Z,101100.67
2019-03-29T21:37:12.959Z,101108.13
2019-03-29T21:41:17.720Z,101105.88
2019-03-29T21:45:28.726Z,101097.90
2019-03-29T21:49:29.072Z,101102.61
2019-03-29T21:53:33.887Z,101098.53
2019-03-29T21:57:41.622Z,101091.41
2019-03-29T22:01:47.537Z,101086.45
2019-03-29T22:05:52.424Z,101081.92
2019-03-29T22:09:57.245Z,101082.64
2019-03-29T22:14:02.000Z,101077.58
2019-03-29T22:18:07.090Z,101077.91
2019-03-29T22:22:11.889Z,101077.22
2019-03-29T22:26:16.828Z,101077.38
2019-03-29T22:30:22.183Z,101082.33
2019-03-29T22:34:28.458Z,101081.02
2019-03-29T22:38:33.636Z,101076.30
2019-03-29T22:42:38.832Z,101073.24
2019-03-29T22:46:43.766Z,101067.06
2019-03-29T22:50:48.718Z,101066.12
2019-03-29T22:54:53.532Z,101068.22
2019-03-29T22:58:58.428Z,101068.98
2019-03-29T23:03:03.368Z,101067.52
2019-03-29T23:07:08.739Z,101064.61
2019-03-29T23:11:14.994Z,101059.96
2019-03-29T23:15:19.876Z,101065.98
2019-03-29T23:19:24.689Z,101067.58
2019-03-29T23:23:29.553Z,101058.77
2019-03-29T23:27:34.750Z,101063.96
2019-03-29T23:31:39.495Z,101058.98
2019-03-29T23:35:44.538Z,101055.27
2019-03-29T23:39:49.375Z,101047.70
2019-03-29T23:43:54.137Z,101048.42
2019-03-29T23:47:58.884Z,101044.48
2019-03-29T23:52:03.665Z,101044.38
2019-03-29T23:56:08.385Z,101052.99
